Naikai Maru No.15 — JD3631 — position and weather

sailwx.info

Track history (hours):
 
Tides and Currents Weather Stations Pressure Air Temp Water Temp Dewpoint Dewpoint Depression Visibility Wind Speed Wind Dir Waves Ship Positions

Naikai Maru No.15

Last reported at 2017-Dec-14 05:03 UTC. Time now 2017-Dec-16 13:01 UTC.
Position N 34°19' E 134°29'.

Length 75 m; draft 3.8 m.

Type: Cargo ship. MMSI: 431005104.

Date/timePositionNaut miles runAvg speedWind from/ knotsBaromVisibWave heightAir tempDewpointWater temp
2017-Dec-14 05:03N 34°19' E 134°29'113.0
2017-Dec-14 04:59N 34°18' E 134°30'612.4
2017-Dec-14 04:28N 34°16' E 134°37'1011.2
2017-Dec-14 03:33N 34°08' E 134°45'111.7
2017-Dec-14 03:30N 34°07' E 134°46'1211.9
2017-Dec-14 02:28N 33°58' E 134°55'511.3
2017-Dec-14 01:59N 33°54' E 134°59'16410.1
2017-Dec-13 09:39N 34°33' E 138°12'2 9.8
2017-Dec-13 09:27N 34°33' E 138°15'10 9.5
2017-Dec-13 08:26N 34°35' E 138°26'6 7.8
2017-Dec-13 07:43N 34°34' E 138°33'4 7.0
2017-Dec-13 07:08N 34°34' E 138°38'1 6.7
2017-Dec-13 06:59N 34°34' E 138°39'6 6.1
2017-Dec-13 06:02N 34°34' E 138°46'1 5.5
2017-Dec-13 05:54N 34°34' E 138°47'2 6.1
2017-Dec-13 05:30N 34°34' E 138°50'4 7.3
2017-Dec-13 04:58N 34°35' E 138°55'4 8.6
2017-Dec-13 04:27N 34°38' E 138°59'711.8
2017-Dec-13 03:54N 34°43' E 139°04'1312.5
2017-Dec-13 02:53N 34°54' E 139°12'511.7
2017-Dec-13 02:26N 34°57' E 139°17'512.2
2017-Dec-13 01:59N 34°59' E 139°23'612.3
2017-Dec-13 01:30N 35°02' E 139°30'612.5
2017-Dec-13 00:59N 35°04' E 139°37'612.9
2017-Dec-13 00:30N 35°08' E 139°43'612.8
2017-Dec-13 00:00N 35°14' E 139°46'612.3
2017-Dec-12 23:30N 35°19' E 139°43'612.4
2017-Dec-12 23:00N 35°25' E 139°42'2 3.6
2017-Dec-12 22:30N 35°27' E 139°42'0 0.0
2017-Dec-12 22:00N 35°27' E 139°42'0 0.0
2017-Dec-12 21:30N 35°27' E 139°42'0 0.0
2017-Dec-12 21:00N 35°27' E 139°42'0 0.0
2017-Dec-12 20:30N 35°27' E 139°42'0 0.0
2017-Dec-12 20:00N 35°27' E 139°42'0 0.0
2017-Dec-12 19:30N 35°27' E 139°42'0 0.0
2017-Dec-12 19:00N 35°27' E 139°42'0 0.0
2017-Dec-12 18:30N 35°27' E 139°42'0 0.0
2017-Dec-12 18:00N 35°27' E 139°42'0 0.0
2017-Dec-12 17:30N 35°27' E 139°42'0 0.0
2017-Dec-12 17:00N 35°27' E 139°42'0 0.0
2017-Dec-12 16:30N 35°27' E 139°42'0 0.4
2017-Dec-12 16:01N 35°27' E 139°43'3 6.9
2017-Dec-12 15:31N 35°31' E 139°44'0 0.2
2017-Dec-12 15:00N 35°31' E 139°44'0 0.0
2017-Dec-12 05:44N 35°31' E 139°44'0 0.7
2017-Dec-12 05:30N 35°30' E 139°44'3 6.5
2017-Dec-12 05:01N 35°27' E 139°43'0 0.9
2017-Dec-12 04:30N 35°27' E 139°42'0 0.1
2017-Dec-12 04:00N 35°27' E 139°42'0 0.0
2017-Dec-12 03:31N 35°27' E 139°42'0 0.0
2017-Dec-12 03:01N 35°27' E 139°42'0 0.0
2017-Dec-12 02:31N 35°27' E 139°42'0 0.0
2017-Dec-12 02:00N 35°27' E 139°42'0 0.0
2017-Dec-12 01:30N 35°27' E 139°42'0 0.0
2017-Dec-12 01:00N 35°27' E 139°42'0 0.0
2017-Dec-12 00:31N 35°27' E 139°42'0 0.0
2017-Dec-12 00:01N 35°27' E 139°42'0 0.0
2017-Dec-11 23:30N 35°27' E 139°42'0 0.0
2017-Dec-11 23:00N 35°27' E 139°42'0 0.0
2017-Dec-11 22:30N 35°27' E 139°42'0 0.0
2017-Dec-11 22:01N 35°27' E 139°42'0 0.0
2017-Dec-11 21:31N 35°27' E 139°42'0 0.0
2017-Dec-11 21:00N 35°27' E 139°42'0 0.0
2017-Dec-11 20:31N 35°27' E 139°42'0 0.0
2017-Dec-11 20:00N 35°27' E 139°42'0 0.0
2017-Dec-11 19:31N 35°27' E 139°42'0 0.0
2017-Dec-11 19:00N 35°27' E 139°42'0 0.0
2017-Dec-11 18:30N 35°27' E 139°42'0 0.0
2017-Dec-11 18:01N 35°27' E 139°42'0 0.0
2017-Dec-11 17:31N 35°27' E 139°42'0 0.0
2017-Dec-11 17:01N 35°27' E 139°42'0 0.0
2017-Dec-11 16:31N 35°27' E 139°42'0 0.0
2017-Dec-11 16:01N 35°27' E 139°42'0 0.0
2017-Dec-11 15:31N 35°27' E 139°42'0 0.0
2017-Dec-11 15:00N 35°27' E 139°42'0 0.0
2017-Dec-11 14:30N 35°27' E 139°42'0 0.0
2017-Dec-11 14:01N 35°27' E 139°42'0 0.0
2017-Dec-11 13:31N 35°27' E 139°42'0 0.0
2017-Dec-11 13:01N 35°27' E 139°42'0 0.0
2017-Dec-11 12:31N 35°27' E 139°42'0 0.0
2017-Dec-11 12:00N 35°27' E 139°42'0 0.0
2017-Dec-11 11:31N 35°27' E 139°42'0 0.0
2017-Dec-11 11:00N 35°27' E 139°42'0 0.0
2017-Dec-11 10:30N 35°27' E 139°42'0 0.0
2017-Dec-11 10:01N 35°27' E 139°42'0 0.0
2017-Dec-11 09:31N 35°27' E 139°42'0 0.1
2017-Dec-11 09:01N 35°27' E 139°42'0 0.0
2017-Dec-11 08:31N 35°27' E 139°42'0 0.0
2017-Dec-11 08:01N 35°27' E 139°42'0 0.0
2017-Dec-11 07:30N 35°27' E 139°42'0 0.0
2017-Dec-11 07:01N 35°27' E 139°42'0 0.0
2017-Dec-11 06:31N 35°27' E 139°42'0 0.0
2017-Dec-11 06:01N 35°27' E 139°42'0 0.0
2017-Dec-11 05:31N 35°27' E 139°42'0 0.0
2017-Dec-11 05:00N 35°27' E 139°42'0 0.0
2017-Dec-11 04:31N 35°27' E 139°42'4 8.8
2017-Dec-11 04:01N 35°29' E 139°47'611.6
2017-Dec-11 03:30N 35°32' E 139°53'712.8
2017-Dec-11 02:59N 35°38' E 139°58'3 3.4
2017-Dec-11 02:02N 35°41' E 139°57'0 0.0
2017-Dec-11 01:58N 35°41' E 139°57'0 0.0
2017-Dec-11 01:27N 35°41' E 139°57'0 0.0
2017-Dec-11 00:35N 35°41' E 139°57'0 0.0
2017-Dec-11 00:13N 35°41' E 139°57'1 0.4
2017-Dec-10 22:53N 35°40' E 139°57'4 8.5
2017-Dec-10 22:25N 35°36' E 139°58'0 0.0
2017-Dec-10 21:58N 35°36' E 139°58'0 0.0
2017-Dec-10 21:29N 35°36' E 139°58'0 0.0
2017-Dec-10 20:41N 35°36' E 139°58'0 0.0
2017-Dec-10 20:30N 35°36' E 139°58'0 0.0
2017-Dec-10 20:00N 35°36' E 139°58'0 0.0
2017-Dec-10 19:30N 35°36' E 139°58'0 0.0
2017-Dec-10 18:58N 35°36' E 139°58'0 0.0
2017-Dec-10 18:28N 35°36' E 139°58'0 0.0
2017-Dec-10 17:58N 35°36' E 139°58'0 0.0
2017-Dec-10 17:30N 35°36' E 139°58'0 0.0
2017-Dec-10 17:00N 35°36' E 139°58'0 0.0
2017-Dec-10 16:30N 35°36' E 139°58'0 0.0
2017-Dec-10 16:00N 35°36' E 139°58'0 0.0
2017-Dec-10 15:30N 35°36' E 139°58'0 0.0
2017-Dec-10 14:59N 35°36' E 139°58'0 0.0
2017-Dec-10 14:29N 35°36' E 139°58'0 0.0
2017-Dec-10 13:59N 35°36' E 139°58'0 0.0
2017-Dec-10 13:30N 35°36' E 139°58'0 0.4
2017-Dec-10 13:00N 35°36' E 139°58'611.5
2017-Dec-10 12:29N 35°31' E 139°54'612.9
2017-Dec-10 12:00N 35°26' E 139°49'612.5
2017-Dec-10 11:31N 35°21' E 139°45'611.7
2017-Dec-10 11:00N 35°15' E 139°47'612.7
2017-Dec-10 10:30N 35°09' E 139°46'612.1
2017-Dec-10 10:00N 35°04' E 139°41'713.1
2017-Dec-10 09:30N 35°00' E 139°35'713.9
2017-Dec-10 08:58N 34°56' E 139°28'814.8
2017-Dec-10 08:27N 34°51' E 139°20'714.6
2017-Dec-10 07:58N 34°47' E 139°13'714.5
2017-Dec-10 07:28N 34°42' E 139°07'612.5
2017-Dec-10 07:00N 34°38' E 139°01'713.8
2017-Dec-10 06:29N 34°35' E 138°53'813.2
2017-Dec-10 05:53N 34°34' E 138°44'613.4
2017-Dec-10 05:28N 34°34' E 138°37'813.8
2017-Dec-10 04:53N 34°34' E 138°27'513.3
2017-Dec-10 04:28N 34°33' E 138°21'613.3
2017-Dec-10 04:00N 34°32' E 138°13'713.5
2017-Dec-10 03:29N 34°30' E 138°05'15710.7
2017-Dec-09 12:45N 33°52' E 135°01'513.0
2017-Dec-09 12:21N 33°56' E 134°57'813.2
2017-Dec-09 11:44N 34°02' E 134°51'313.4
2017-Dec-09 11:31N 34°05' E 134°48'713.6
2017-Dec-09 11:00N 34°10' E 134°43'713.7
2017-Dec-09 10:28N 34°16' E 134°37'613.4
2017-Dec-09 10:00N 34°18' E 134°30'713.3
2017-Dec-09 09:30N 34°21' E 134°23'913.6
2017-Dec-09 08:50N 34°24' E 134°13'  
Track history (hours):
 
Tides and Currents Weather Stations Pressure Air Temp Water Temp Dewpoint Dewpoint Depression Visibility Wind Speed Wind Dir Waves Ship Positions

Naikai Maru No.15

Last reported at 2017-Dec-14 05:03 UTC. Time now 2017-Dec-16 13:01 UTC.
Position N 34°19' E 134°29'.

Length 75 m; draft 3.8 m.

Type: Cargo ship. MMSI: 431005104.

Date/timePositionNaut miles runAvg speedWind from/ knotsBaromVisibWave heightAir tempDewpointWater temp
2017-Dec-14 05:03N 34°19' E 134°29'113.0
2017-Dec-14 04:59N 34°18' E 134°30'612.4
2017-Dec-14 04:28N 34°16' E 134°37'1011.2
2017-Dec-14 03:33N 34°08' E 134°45'111.7
2017-Dec-14 03:30N 34°07' E 134°46'1211.9
2017-Dec-14 02:28N 33°58' E 134°55'511.3
2017-Dec-14 01:59N 33°54' E 134°59'16410.1
2017-Dec-13 09:39N 34°33' E 138°12'2 9.8
2017-Dec-13 09:27N 34°33' E 138°15'10 9.5
2017-Dec-13 08:26N 34°35' E 138°26'6 7.8
2017-Dec-13 07:43N 34°34' E 138°33'4 7.0
2017-Dec-13 07:08N 34°34' E 138°38'1 6.7
2017-Dec-13 06:59N 34°34' E 138°39'6 6.1
2017-Dec-13 06:02N 34°34' E 138°46'1 5.5
2017-Dec-13 05:54N 34°34' E 138°47'2 6.1
2017-Dec-13 05:30N 34°34' E 138°50'4 7.3
2017-Dec-13 04:58N 34°35' E 138°55'4 8.6
2017-Dec-13 04:27N 34°38' E 138°59'711.8
2017-Dec-13 03:54N 34°43' E 139°04'1312.5
2017-Dec-13 02:53N 34°54' E 139°12'511.7
2017-Dec-13 02:26N 34°57' E 139°17'512.2
2017-Dec-13 01:59N 34°59' E 139°23'612.3
2017-Dec-13 01:30N 35°02' E 139°30'612.5
2017-Dec-13 00:59N 35°04' E 139°37'612.9
2017-Dec-13 00:30N 35°08' E 139°43'612.8
2017-Dec-13 00:00N 35°14' E 139°46'612.3
2017-Dec-12 23:30N 35°19' E 139°43'612.4
2017-Dec-12 23:00N 35°25' E 139°42'2 3.6
2017-Dec-12 22:30N 35°27' E 139°42'0 0.0
2017-Dec-12 22:00N 35°27' E 139°42'0 0.0
2017-Dec-12 21:30N 35°27' E 139°42'0 0.0
2017-Dec-12 21:00N 35°27' E 139°42'0 0.0
2017-Dec-12 20:30N 35°27' E 139°42'0 0.0
2017-Dec-12 20:00N 35°27' E 139°42'0 0.0
2017-Dec-12 19:30N 35°27' E 139°42'0 0.0
2017-Dec-12 19:00N 35°27' E 139°42'0 0.0
2017-Dec-12 18:30N 35°27' E 139°42'0 0.0
2017-Dec-12 18:00N 35°27' E 139°42'0 0.0
2017-Dec-12 17:30N 35°27' E 139°42'0 0.0
2017-Dec-12 17:00N 35°27' E 139°42'0 0.0
2017-Dec-12 16:30N 35°27' E 139°42'0 0.4
2017-Dec-12 16:01N 35°27' E 139°43'3 6.9
2017-Dec-12 15:31N 35°31' E 139°44'0 0.2
2017-Dec-12 15:00N 35°31' E 139°44'0 0.0
2017-Dec-12 05:44N 35°31' E 139°44'0 0.7
2017-Dec-12 05:30N 35°30' E 139°44'3 6.5
2017-Dec-12 05:01N 35°27' E 139°43'0 0.9
2017-Dec-12 04:30N 35°27' E 139°42'0 0.1
2017-Dec-12 04:00N 35°27' E 139°42'0 0.0
2017-Dec-12 03:31N 35°27' E 139°42'0 0.0
2017-Dec-12 03:01N 35°27' E 139°42'0 0.0
2017-Dec-12 02:31N 35°27' E 139°42'0 0.0
2017-Dec-12 02:00N 35°27' E 139°42'0 0.0
2017-Dec-12 01:30N 35°27' E 139°42'0 0.0
2017-Dec-12 01:00N 35°27' E 139°42'0 0.0
2017-Dec-12 00:31N 35°27' E 139°42'0 0.0
2017-Dec-12 00:01N 35°27' E 139°42'0 0.0
2017-Dec-11 23:30N 35°27' E 139°42'0 0.0
2017-Dec-11 23:00N 35°27' E 139°42'0 0.0
2017-Dec-11 22:30N 35°27' E 139°42'0 0.0
2017-Dec-11 22:01N 35°27' E 139°42'0 0.0
2017-Dec-11 21:31N 35°27' E 139°42'0 0.0
2017-Dec-11 21:00N 35°27' E 139°42'0 0.0
2017-Dec-11 20:31N 35°27' E 139°42'0 0.0
2017-Dec-11 20:00N 35°27' E 139°42'0 0.0
2017-Dec-11 19:31N 35°27' E 139°42'0 0.0
2017-Dec-11 19:00N 35°27' E 139°42'0 0.0
2017-Dec-11 18:30N 35°27' E 139°42'0 0.0
2017-Dec-11 18:01N 35°27' E 139°42'0 0.0
2017-Dec-11 17:31N 35°27' E 139°42'0 0.0
2017-Dec-11 17:01N 35°27' E 139°42'0 0.0
2017-Dec-11 16:31N 35°27' E 139°42'0 0.0
2017-Dec-11 16:01N 35°27' E 139°42'0 0.0
2017-Dec-11 15:31N 35°27' E 139°42'0 0.0
2017-Dec-11 15:00N 35°27' E 139°42'0 0.0
2017-Dec-11 14:30N 35°27' E 139°42'0 0.0
2017-Dec-11 14:01N 35°27' E 139°42'0 0.0
2017-Dec-11 13:31N 35°27' E 139°42'0 0.0
2017-Dec-11 13:01N 35°27' E 139°42'0 0.0
2017-Dec-11 12:31N 35°27' E 139°42'0 0.0
2017-Dec-11 12:00N 35°27' E 139°42'0 0.0
2017-Dec-11 11:31N 35°27' E 139°42'0 0.0
2017-Dec-11 11:00N 35°27' E 139°42'0 0.0
2017-Dec-11 10:30N 35°27' E 139°42'0 0.0
2017-Dec-11 10:01N 35°27' E 139°42'0 0.0
2017-Dec-11 09:31N 35°27' E 139°42'0 0.1
2017-Dec-11 09:01N 35°27' E 139°42'0 0.0
2017-Dec-11 08:31N 35°27' E 139°42'0 0.0
2017-Dec-11 08:01N 35°27' E 139°42'0 0.0
2017-Dec-11 07:30N 35°27' E 139°42'0 0.0
2017-Dec-11 07:01N 35°27' E 139°42'0 0.0
2017-Dec-11 06:31N 35°27' E 139°42'0 0.0
2017-Dec-11 06:01N 35°27' E 139°42'0 0.0
2017-Dec-11 05:31N 35°27' E 139°42'0 0.0
2017-Dec-11 05:00N 35°27' E 139°42'0 0.0
2017-Dec-11 04:31N 35°27' E 139°42'4 8.8
2017-Dec-11 04:01N 35°29' E 139°47'611.6
2017-Dec-11 03:30N 35°32' E 139°53'712.8
2017-Dec-11 02:59N 35°38' E 139°58'3 3.4
2017-Dec-11 02:02N 35°41' E 139°57'0 0.0
2017-Dec-11 01:58N 35°41' E 139°57'0 0.0
2017-Dec-11 01:27N 35°41' E 139°57'0 0.0
2017-Dec-11 00:35N 35°41' E 139°57'0 0.0
2017-Dec-11 00:13N 35°41' E 139°57'1 0.4
2017-Dec-10 22:53N 35°40' E 139°57'4 8.5
2017-Dec-10 22:25N 35°36' E 139°58'0 0.0
2017-Dec-10 21:58N 35°36' E 139°58'0 0.0
2017-Dec-10 21:29N 35°36' E 139°58'0 0.0
2017-Dec-10 20:41N 35°36' E 139°58'0 0.0
2017-Dec-10 20:30N 35°36' E 139°58'0 0.0
2017-Dec-10 20:00N 35°36' E 139°58'0 0.0
2017-Dec-10 19:30N 35°36' E 139°58'0 0.0
2017-Dec-10 18:58N 35°36' E 139°58'0 0.0
2017-Dec-10 18:28N 35°36' E 139°58'0 0.0
2017-Dec-10 17:58N 35°36' E 139°58'0 0.0
2017-Dec-10 17:30N 35°36' E 139°58'0 0.0
2017-Dec-10 17:00N 35°36' E 139°58'0 0.0
2017-Dec-10 16:30N 35°36' E 139°58'0 0.0
2017-Dec-10 16:00N 35°36' E 139°58'0 0.0
2017-Dec-10 15:30N 35°36' E 139°58'0 0.0
2017-Dec-10 14:59N 35°36' E 139°58'0 0.0
2017-Dec-10 14:29N 35°36' E 139°58'0 0.0
2017-Dec-10 13:59N 35°36' E 139°58'0 0.0
2017-Dec-10 13:30N 35°36' E 139°58'0 0.4
2017-Dec-10 13:00N 35°36' E 139°58'611.5
2017-Dec-10 12:29N 35°31' E 139°54'612.9
2017-Dec-10 12:00N 35°26' E 139°49'612.5
2017-Dec-10 11:31N 35°21' E 139°45'611.7
2017-Dec-10 11:00N 35°15' E 139°47'612.7
2017-Dec-10 10:30N 35°09' E 139°46'612.1
2017-Dec-10 10:00N 35°04' E 139°41'713.1
2017-Dec-10 09:30N 35°00' E 139°35'713.9
2017-Dec-10 08:58N 34°56' E 139°28'814.8
2017-Dec-10 08:27N 34°51' E 139°20'714.6
2017-Dec-10 07:58N 34°47' E 139°13'714.5
2017-Dec-10 07:28N 34°42' E 139°07'612.5
2017-Dec-10 07:00N 34°38' E 139°01'713.8
2017-Dec-10 06:29N 34°35' E 138°53'813.2
2017-Dec-10 05:53N 34°34' E 138°44'613.4
2017-Dec-10 05:28N 34°34' E 138°37'813.8
2017-Dec-10 04:53N 34°34' E 138°27'513.3
2017-Dec-10 04:28N 34°33' E 138°21'613.3
2017-Dec-10 04:00N 34°32' E 138°13'713.5
2017-Dec-10 03:29N 34°30' E 138°05'15710.7
2017-Dec-09 12:45N 33°52' E 135°01'513.0
2017-Dec-09 12:21N 33°56' E 134°57'813.2
2017-Dec-09 11:44N 34°02' E 134°51'313.4
2017-Dec-09 11:31N 34°05' E 134°48'713.6
2017-Dec-09 11:00N 34°10' E 134°43'713.7
2017-Dec-09 10:28N 34°16' E 134°37'613.4
2017-Dec-09 10:00N 34°18' E 134°30'713.3
2017-Dec-09 09:30N 34°21' E 134°23'913.6
2017-Dec-09 08:50N 34°24' E 134°13'  

Dump ship's entire track history